sensor_id;sensor_type;location;lat;lon;timestamp;P1;durP1;ratioP1;P2;durP2;ratioP2
10677;SDS011;5387;48.722;9.110;2023-07-22T00:02:21;1.80;;;1.70;;
10677;SDS011;5387;48.722;9.110;2023-07-22T00:04:48;2.30;;;2.10;;
10677;SDS011;5387;48.722;9.110;2023-07-22T00:07:15;6.93;;;2.30;;
10677;SDS011;5387;48.722;9.110;2023-07-22T00:09:42;1.97;;;1.77;;
10677;SDS011;5387;48.722;9.110;2023-07-22T00:12:09;3.47;;;2.33;;
10677;SDS011;5387;48.722;9.110;2023-07-22T00:14:38;1.80;;;1.70;;
10677;SDS011;5387;48.722;9.110;2023-07-22T00:17:08;2.03;;;1.83;;
10677;SDS011;5387;48.722;9.110;2023-07-22T00:19:35;2.30;;;1.90;;
10677;SDS011;5387;48.722;9.110;2023-07-22T00:22:01;2.00;;;1.73;;
10677;SDS011;5387;48.722;9.110;2023-07-22T00:24:28;2.50;;;2.30;;
10677;SDS011;5387;48.722;9.110;2023-07-22T00:26:55;2.53;;;2.13;;
10677;SDS011;5387;48.722;9.110;2023-07-22T00:29:22;2.70;;;2.10;;
10677;SDS011;5387;48.722;9.110;2023-07-22T00:31:49;5.30;;;2.37;;
10677;SDS011;5387;48.722;9.110;2023-07-22T00:34:17;2.03;;;1.83;;
10677;SDS011;5387;48.722;9.110;2023-07-22T00:36:44;2.17;;;1.80;;
10677;SDS011;5387;48.722;9.110;2023-07-22T00:39:12;2.17;;;1.87;;
10677;SDS011;5387;48.722;9.110;2023-07-22T00:41:39;1.77;;;1.67;;
10677;SDS011;5387;48.722;9.110;2023-07-22T00:44:09;3.53;;;2.00;;
10677;SDS011;5387;48.722;9.110;2023-07-22T00:46:35;2.20;;;2.10;;
10677;SDS011;5387;48.722;9.110;2023-07-22T00:49:02;2.08;;;1.88;;
10677;SDS011;5387;48.722;9.110;2023-07-22T00:51:33;2.70;;;1.88;;
10677;SDS011;5387;48.722;9.110;2023-07-22T00:54:00;3.30;;;1.90;;
10677;SDS011;5387;48.722;9.110;2023-07-22T00:56:28;3.80;;;1.55;;
10677;SDS011;5387;48.722;9.110;2023-07-22T00:58:56;1.85;;;1.65;;
10677;SDS011;5387;48.722;9.110;2023-07-22T01:01:23;1.80;;;1.70;;
10677;SDS011;5387;48.722;9.110;2023-07-22T01:03:50;2.50;;;2.10;;
10677;SDS011;5387;48.722;9.110;2023-07-22T01:06:17;4.10;;;2.43;;
10677;SDS011;5387;48.722;9.110;2023-07-22T01:08:46;2.47;;;1.80;;
10677;SDS011;5387;48.722;9.110;2023-07-22T01:11:13;2.20;;;2.00;;
10677;SDS011;5387;48.722;9.110;2023-07-22T01:13:40;3.13;;;2.23;;
10677;SDS011;5387;48.722;9.110;2023-07-22T01:16:07;3.93;;;1.93;;
10677;SDS011;5387;48.722;9.110;2023-07-22T01:18:33;2.30;;;2.10;;
10677;SDS011;5387;48.722;9.110;2023-07-22T01:21:01;2.60;;;2.07;;
10677;SDS011;5387;48.722;9.110;2023-07-22T01:23:29;2.30;;;1.87;;
10677;SDS011;5387;48.722;9.110;2023-07-22T01:25:56;2.10;;;1.90;;
10677;SDS011;5387;48.722;9.110;2023-07-22T01:28:24;2.30;;;2.10;;
10677;SDS011;5387;48.722;9.110;2023-07-22T01:30:52;2.80;;;2.10;;
10677;SDS011;5387;48.722;9.110;2023-07-22T01:33:19;3.20;;;2.40;;
10677;SDS011;5387;48.722;9.110;2023-07-22T01:35:46;2.53;;;1.93;;
10677;SDS011;5387;48.722;9.110;2023-07-22T01:38:12;2.00;;;1.70;;
10677;SDS011;5387;48.722;9.110;2023-07-22T01:40:41;2.33;;;2.00;;
10677;SDS011;5387;48.722;9.110;2023-07-22T01:43:08;2.33;;;1.73;;
10677;SDS011;5387;48.722;9.110;2023-07-22T01:45:34;2.40;;;2.07;;
10677;SDS011;5387;48.722;9.110;2023-07-22T01:48:03;2.93;;;1.83;;
10677;SDS011;5387;48.722;9.110;2023-07-22T01:50:30;2.60;;;2.03;;
10677;SDS011;5387;48.722;9.110;2023-07-22T01:52:57;3.37;;;2.13;;
10677;SDS011;5387;48.722;9.110;2023-07-22T01:55:24;2.27;;;2.07;;
10677;SDS011;5387;48.722;9.110;2023-07-22T02:00:27;2.40;;;2.20;;
10677;SDS011;5387;48.722;9.110;2023-07-22T02:02:54;2.00;;;1.87;;
10677;SDS011;5387;48.722;9.110;2023-07-22T02:05:21;2.50;;;2.10;;
10677;SDS011;5387;48.722;9.110;2023-07-22T02:07:48;2.43;;;2.00;;
10677;SDS011;5387;48.722;9.110;2023-07-22T02:10:15;2.53;;;1.97;;
10677;SDS011;5387;48.722;9.110;2023-07-22T02:12:42;2.27;;;2.07;;
10677;SDS011;5387;48.722;9.110;2023-07-22T02:15:09;2.90;;;2.10;;
10677;SDS011;5387;48.722;9.110;2023-07-22T02:17:37;2.40;;;2.20;;
10677;SDS011;5387;48.722;9.110;2023-07-22T02:20:05;4.13;;;1.93;;
10677;SDS011;5387;48.722;9.110;2023-07-22T02:22:34;2.33;;;2.13;;
10677;SDS011;5387;48.722;9.110;2023-07-22T02:25:01;3.30;;;2.03;;
10677;SDS011;5387;48.722;9.110;2023-07-22T02:27:28;2.33;;;1.70;;
10677;SDS011;5387;48.722;9.110;2023-07-22T02:29:55;2.43;;;1.90;;
10677;SDS011;5387;48.722;9.110;2023-07-22T02:32:21;1.90;;;1.77;;
10677;SDS011;5387;48.722;9.110;2023-07-22T02:34:50;2.57;;;2.13;;
10677;SDS011;5387;48.722;9.110;2023-07-22T02:37:16;2.70;;;2.00;;
10677;SDS011;5387;48.722;9.110;2023-07-22T02:39:43;2.03;;;1.50;;
10677;SDS011;5387;48.722;9.110;2023-07-22T02:42:10;2.73;;;2.10;;
10677;SDS011;5387;48.722;9.110;2023-07-22T02:44:37;2.57;;;2.20;;
10677;SDS011;5387;48.722;9.110;2023-07-22T02:47:03;4.40;;;2.50;;
10677;SDS011;5387;48.722;9.110;2023-07-22T02:49:30;5.10;;;1.90;;
10677;SDS011;5387;48.722;9.110;2023-07-22T02:51:58;4.07;;;2.47;;
10677;SDS011;5387;48.722;9.110;2023-07-22T02:54:26;1.97;;;1.80;;
10677;SDS011;5387;48.722;9.110;2023-07-22T02:56:52;2.93;;;2.07;;
10677;SDS011;5387;48.722;9.110;2023-07-22T02:59:19;2.70;;;2.10;;
10677;SDS011;5387;48.722;9.110;2023-07-22T03:01:46;2.70;;;1.90;;
10677;SDS011;5387;48.722;9.110;2023-07-22T03:04:13;4.90;;;2.50;;
10677;SDS011;5387;48.722;9.110;2023-07-22T03:06:40;3.80;;;2.33;;
10677;SDS011;5387;48.722;9.110;2023-07-22T03:09:08;2.63;;;2.10;;
10677;SDS011;5387;48.722;9.110;2023-07-22T03:11:36;2.87;;;2.27;;
10677;SDS011;5387;48.722;9.110;2023-07-22T03:14:03;2.93;;;2.10;;
10677;SDS011;5387;48.722;9.110;2023-07-22T03:16:30;3.03;;;2.17;;
10677;SDS011;5387;48.722;9.110;2023-07-22T03:18:57;2.90;;;1.97;;
10677;SDS011;5387;48.722;9.110;2023-07-22T03:21:24;2.00;;;1.80;;
10677;SDS011;5387;48.722;9.110;2023-07-22T03:23:51;4.10;;;2.27;;
10677;SDS011;5387;48.722;9.110;2023-07-22T03:26:19;2.10;;;2.00;;
10677;SDS011;5387;48.722;9.110;2023-07-22T03:28:46;2.63;;;1.97;;
10677;SDS011;5387;48.722;9.110;2023-07-22T03:31:13;2.20;;;2.00;;
10677;SDS011;5387;48.722;9.110;2023-07-22T03:33:40;4.87;;;1.80;;
10677;SDS011;5387;48.722;9.110;2023-07-22T03:36:11;5.53;;;2.00;;
10677;SDS011;5387;48.722;9.110;2023-07-22T03:38:38;3.57;;;1.90;;
10677;SDS011;5387;48.722;9.110;2023-07-22T03:41:04;2.77;;;2.10;;
10677;SDS011;5387;48.722;9.110;2023-07-22T03:43:33;2.13;;;1.87;;
10677;SDS011;5387;48.722;9.110;2023-07-22T03:46:00;2.25;;;1.95;;
10677;SDS011;5387;48.722;9.110;2023-07-22T03:48:27;4.60;;;1.90;;
10677;SDS011;5387;48.722;9.110;2023-07-22T03:50:53;3.03;;;1.83;;
10677;SDS011;5387;48.722;9.110;2023-07-22T03:53:20;2.60;;;2.23;;
10677;SDS011;5387;48.722;9.110;2023-07-22T03:55:47;3.63;;;2.20;;
10677;SDS011;5387;48.722;9.110;2023-07-22T03:58:14;4.47;;;1.70;;
10677;SDS011;5387;48.722;9.110;2023-07-22T04:00:42;4.90;;;2.00;;
10677;SDS011;5387;48.722;9.110;2023-07-22T04:03:09;2.40;;;2.10;;
10677;SDS011;5387;48.722;9.110;2023-07-22T04:05:36;4.00;;;2.17;;
10677;SDS011;5387;48.722;9.110;2023-07-22T04:08:02;2.43;;;1.97;;
10677;SDS011;5387;48.722;9.110;2023-07-22T04:10:29;3.67;;;2.10;;
10677;SDS011;5387;48.722;9.110;2023-07-22T04:12:56;4.33;;;2.13;;
10677;SDS011;5387;48.722;9.110;2023-07-22T04:15:23;4.43;;;2.67;;
10677;SDS011;5387;48.722;9.110;2023-07-22T04:17:52;2.83;;;2.20;;
10677;SDS011;5387;48.722;9.110;2023-07-22T04:20:18;2.57;;;1.83;;
10677;SDS011;5387;48.722;9.110;2023-07-22T04:22:45;2.23;;;2.03;;
10677;SDS011;5387;48.722;9.110;2023-07-22T04:25:12;4.73;;;2.33;;
10677;SDS011;5387;48.722;9.110;2023-07-22T04:27:39;2.77;;;2.07;;
10677;SDS011;5387;48.722;9.110;2023-07-22T04:30:06;4.23;;;2.03;;
10677;SDS011;5387;48.722;9.110;2023-07-22T04:32:34;2.53;;;2.00;;
10677;SDS011;5387;48.722;9.110;2023-07-22T04:35:02;2.60;;;2.17;;
10677;SDS011;5387;48.722;9.110;2023-07-22T04:37:30;1.90;;;1.80;;
10677;SDS011;5387;48.722;9.110;2023-07-22T04:39:57;5.47;;;2.23;;
10677;SDS011;5387;48.722;9.110;2023-07-22T04:42:24;2.53;;;2.00;;
10677;SDS011;5387;48.722;9.110;2023-07-22T04:44:52;2.33;;;2.10;;
10677;SDS011;5387;48.722;9.110;2023-07-22T04:47:19;2.30;;;2.10;;
10677;SDS011;5387;48.722;9.110;2023-07-22T04:49:46;3.17;;;1.97;;
10677;SDS011;5387;48.722;9.110;2023-07-22T04:52:14;2.53;;;2.20;;
10677;SDS011;5387;48.722;9.110;2023-07-22T04:54:42;2.10;;;1.90;;
10677;SDS011;5387;48.722;9.110;2023-07-22T04:57:12;5.23;;;2.20;;
10677;SDS011;5387;48.722;9.110;2023-07-22T04:59:39;3.60;;;2.17;;
10677;SDS011;5387;48.722;9.110;2023-07-22T05:02:05;2.37;;;2.00;;
10677;SDS011;5387;48.722;9.110;2023-07-22T05:04:32;4.10;;;2.28;;
10677;SDS011;5387;48.722;9.110;2023-07-22T05:06:59;2.38;;;1.88;;
10677;SDS011;5387;48.722;9.110;2023-07-22T05:09:27;2.17;;;1.98;;
10677;SDS011;5387;48.722;9.110;2023-07-22T05:11:54;2.40;;;2.20;;
10677;SDS011;5387;48.722;9.110;2023-07-22T05:14:21;2.10;;;1.92;;
10677;SDS011;5387;48.722;9.110;2023-07-22T05:16:49;2.75;;;2.00;;
10677;SDS011;5387;48.722;9.110;2023-07-22T05:19:16;1.85;;;1.70;;
10677;SDS011;5387;48.722;9.110;2023-07-22T05:21:44;2.50;;;1.83;;
10677;SDS011;5387;48.722;9.110;2023-07-22T05:24:10;2.33;;;1.90;;
10677;SDS011;5387;48.722;9.110;2023-07-22T05:26:38;2.17;;;1.92;;
10677;SDS011;5387;48.722;9.110;2023-07-22T05:29:05;2.45;;;2.03;;
10677;SDS011;5387;48.722;9.110;2023-07-22T05:31:32;2.90;;;1.80;;
10677;SDS011;5387;48.722;9.110;2023-07-22T05:33:59;4.38;;;2.08;;
10677;SDS011;5387;48.722;9.110;2023-07-22T05:36:26;3.90;;;2.35;;
10677;SDS011;5387;48.722;9.110;2023-07-22T05:38:52;5.15;;;2.00;;
10677;SDS011;5387;48.722;9.110;2023-07-22T05:41:19;1.70;;;1.60;;
10677;SDS011;5387;48.722;9.110;2023-07-22T05:43:47;2.03;;;1.83;;
10677;SDS011;5387;48.722;9.110;2023-07-22T05:46:14;2.80;;;2.13;;
10677;SDS011;5387;48.722;9.110;2023-07-22T05:48:41;2.35;;;1.90;;
10677;SDS011;5387;48.722;9.110;2023-07-22T05:51:09;3.28;;;1.75;;
10677;SDS011;5387;48.722;9.110;2023-07-22T05:53:36;2.28;;;1.90;;
10677;SDS011;5387;48.722;9.110;2023-07-22T05:56:03;1.90;;;1.80;;
10677;SDS011;5387;48.722;9.110;2023-07-22T05:58:29;1.85;;;1.58;;
10677;SDS011;5387;48.722;9.110;2023-07-22T06:00:58;2.70;;;2.15;;
10677;SDS011;5387;48.722;9.110;2023-07-22T06:03:24;4.30;;;2.22;;
10677;SDS011;5387;48.722;9.110;2023-07-22T06:05:51;5.57;;;1.85;;
10677;SDS011;5387;48.722;9.110;2023-07-22T06:08:18;4.10;;;1.88;;
10677;SDS011;5387;48.722;9.110;2023-07-22T06:10:45;2.33;;;1.90;;
10677;SDS011;5387;48.722;9.110;2023-07-22T06:13:12;2.55;;;1.77;;
10677;SDS011;5387;48.722;9.110;2023-07-22T06:15:38;5.03;;;2.15;;
10677;SDS011;5387;48.722;9.110;2023-07-22T06:18:07;3.53;;;1.75;;
10677;SDS011;5387;48.722;9.110;2023-07-22T06:20:34;4.30;;;2.05;;
10677;SDS011;5387;48.722;9.110;2023-07-22T06:23:01;3.15;;;1.80;;
10677;SDS011;5387;48.722;9.110;2023-07-22T06:25:28;5.97;;;2.00;;
10677;SDS011;5387;48.722;9.110;2023-07-22T06:27:55;2.67;;;2.25;;
10677;SDS011;5387;48.722;9.110;2023-07-22T06:30:21;3.90;;;1.90;;
10677;SDS011;5387;48.722;9.110;2023-07-22T06:32:48;4.07;;;2.00;;
10677;SDS011;5387;48.722;9.110;2023-07-22T06:35:16;2.38;;;2.13;;
10677;SDS011;5387;48.722;9.110;2023-07-22T06:37:43;2.08;;;1.80;;
10677;SDS011;5387;48.722;9.110;2023-07-22T06:40:10;2.50;;;1.88;;
10677;SDS011;5387;48.722;9.110;2023-07-22T06:42:37;1.90;;;1.58;;
10677;SDS011;5387;48.722;9.110;2023-07-22T06:45:04;4.90;;;2.08;;
10677;SDS011;5387;48.722;9.110;2023-07-22T06:47:32;2.88;;;2.28;;
10677;SDS011;5387;48.722;9.110;2023-07-22T06:49:59;3.90;;;2.00;;
10677;SDS011;5387;48.722;9.110;2023-07-22T06:52:27;1.90;;;1.75;;
10677;SDS011;5387;48.722;9.110;2023-07-22T06:54:54;2.50;;;2.30;;
10677;SDS011;5387;48.722;9.110;2023-07-22T06:57:21;1.92;;;1.80;;
10677;SDS011;5387;48.722;9.110;2023-07-22T06:59:51;1.95;;;1.77;;
10677;SDS011;5387;48.722;9.110;2023-07-22T07:02:19;2.55;;;1.98;;
10677;SDS011;5387;48.722;9.110;2023-07-22T07:04:46;1.98;;;1.88;;
10677;SDS011;5387;48.722;9.110;2023-07-22T07:07:13;2.20;;;1.90;;
10677;SDS011;5387;48.722;9.110;2023-07-22T07:09:41;1.92;;;1.67;;
10677;SDS011;5387;48.722;9.110;2023-07-22T07:12:08;2.45;;;1.80;;
10677;SDS011;5387;48.722;9.110;2023-07-22T07:14:35;3.15;;;1.80;;
10677;SDS011;5387;48.722;9.110;2023-07-22T07:17:02;2.15;;;1.95;;
10677;SDS011;5387;48.722;9.110;2023-07-22T07:19:29;2.20;;;2.00;;
10677;SDS011;5387;48.722;9.110;2023-07-22T07:21:56;6.82;;;1.65;;
10677;SDS011;5387;48.722;9.110;2023-07-22T07:24:23;1.80;;;1.70;;
10677;SDS011;5387;48.722;9.110;2023-07-22T07:26:51;2.08;;;1.73;;
10677;SDS011;5387;48.722;9.110;2023-07-22T07:29:17;6.65;;;1.70;;
10677;SDS011;5387;48.722;9.110;2023-07-22T07:31:44;3.47;;;2.00;;
10677;SDS011;5387;48.722;9.110;2023-07-22T07:34:11;2.50;;;1.83;;
10677;SDS011;5387;48.722;9.110;2023-07-22T07:36:38;3.33;;;1.67;;
10677;SDS011;5387;48.722;9.110;2023-07-22T07:39:04;2.83;;;1.80;;
10677;SDS011;5387;48.722;9.110;2023-07-22T07:41:31;2.05;;;1.80;;
10677;SDS011;5387;48.722;9.110;2023-07-22T07:43:59;2.58;;;1.90;;
10677;SDS011;5387;48.722;9.110;2023-07-22T07:46:27;2.10;;;1.90;;
10677;SDS011;5387;48.722;9.110;2023-07-22T07:48:55;2.35;;;1.83;;
10677;SDS011;5387;48.722;9.110;2023-07-22T07:51:23;2.03;;;1.40;;
10677;SDS011;5387;48.722;9.110;2023-07-22T07:53:52;1.77;;;1.52;;
10677;SDS011;5387;48.722;9.110;2023-07-22T07:56:19;1.63;;;1.52;;
10677;SDS011;5387;48.722;9.110;2023-07-22T07:58:48;2.13;;;1.48;;
10677;SDS011;5387;48.722;9.110;2023-07-22T08:01:17;2.38;;;1.98;;
10677;SDS011;5387;48.722;9.110;2023-07-22T08:03:44;3.58;;;1.73;;
10677;SDS011;5387;48.722;9.110;2023-07-22T08:06:11;1.60;;;1.50;;
10677;SDS011;5387;48.722;9.110;2023-07-22T08:08:38;1.73;;;1.42;;
10677;SDS011;5387;48.722;9.110;2023-07-22T08:11:06;2.10;;;1.60;;
10677;SDS011;5387;48.722;9.110;2023-07-22T08:13:34;3.20;;;1.65;;
10677;SDS011;5387;48.722;9.110;2023-07-22T08:16:01;1.70;;;1.60;;
10677;SDS011;5387;48.722;9.110;2023-07-22T08:18:30;1.58;;;1.48;;
10677;SDS011;5387;48.722;9.110;2023-07-22T08:20:58;1.73;;;1.60;;
10677;SDS011;5387;48.722;9.110;2023-07-22T08:23:25;1.65;;;1.50;;
10677;SDS011;5387;48.722;9.110;2023-07-22T08:25:52;1.52;;;1.40;;
10677;SDS011;5387;48.722;9.110;2023-07-22T08:28:18;1.77;;;1.50;;
10677;SDS011;5387;48.722;9.110;2023-07-22T08:30:45;1.60;;;1.50;;
10677;SDS011;5387;48.722;9.110;2023-07-22T08:33:14;1.60;;;1.50;;
10677;SDS011;5387;48.722;9.110;2023-07-22T08:35:43;2.03;;;1.73;;
10677;SDS011;5387;48.722;9.110;2023-07-22T08:38:10;2.10;;;1.35;;
10677;SDS011;5387;48.722;9.110;2023-07-22T08:40:37;1.83;;;1.73;;
10677;SDS011;5387;48.722;9.110;2023-07-22T08:43:05;1.85;;;1.75;;
10677;SDS011;5387;48.722;9.110;2023-07-22T08:45:34;3.42;;;1.67;;
10677;SDS011;5387;48.722;9.110;2023-07-22T08:48:02;2.08;;;1.70;;
10677;SDS011;5387;48.722;9.110;2023-07-22T08:50:33;1.65;;;1.55;;
10677;SDS011;5387;48.722;9.110;2023-07-22T08:53:06;1.33;;;1.23;;
10677;SDS011;5387;48.722;9.110;2023-07-22T08:55:34;2.50;;;1.38;;
10677;SDS011;5387;48.722;9.110;2023-07-22T08:58:01;1.48;;;1.38;;
10677;SDS011;5387;48.722;9.110;2023-07-22T09:00:29;1.60;;;1.50;;
10677;SDS011;5387;48.722;9.110;2023-07-22T09:02:57;1.58;;;1.15;;
10677;SDS011;5387;48.722;9.110;2023-07-22T09:05:25;2.70;;;1.60;;
10677;SDS011;5387;48.722;9.110;2023-07-22T09:07:52;1.48;;;1.38;;
10677;SDS011;5387;48.722;9.110;2023-07-22T09:10:21;1.60;;;1.50;;
10677;SDS011;5387;48.722;9.110;2023-07-22T09:12:48;1.48;;;1.38;;
10677;SDS011;5387;48.722;9.110;2023-07-22T09:15:16;1.40;;;1.30;;
10677;SDS011;5387;48.722;9.110;2023-07-22T09:17:43;1.75;;;1.58;;
10677;SDS011;5387;48.722;9.110;2023-07-22T09:20:11;6.57;;;1.48;;
10677;SDS011;5387;48.722;9.110;2023-07-22T09:22:42;1.40;;;1.30;;
10677;SDS011;5387;48.722;9.110;2023-07-22T09:25:13;1.27;;;1.27;;
10677;SDS011;5387;48.722;9.110;2023-07-22T09:27:43;3.25;;;1.65;;
10677;SDS011;5387;48.722;9.110;2023-07-22T09:30:23;1.40;;;1.30;;
10677;SDS011;5387;48.722;9.110;2023-07-22T09:32:52;1.75;;;1.65;;
10677;SDS011;5387;48.722;9.110;2023-07-22T09:35:20;2.17;;;1.50;;
10677;SDS011;5387;48.722;9.110;2023-07-22T09:37:47;1.25;;;1.20;;
10677;SDS011;5387;48.722;9.110;2023-07-22T09:40:15;1.20;;;1.20;;
10677;SDS011;5387;48.722;9.110;2023-07-22T09:42:48;2.05;;;1.48;;
10677;SDS011;5387;48.722;9.110;2023-07-22T09:45:15;1.25;;;1.15;;
10677;SDS011;5387;48.722;9.110;2023-07-22T09:47:43;1.70;;;1.60;;
10677;SDS011;5387;48.722;9.110;2023-07-22T09:50:13;1.52;;;1.40;;
10677;SDS011;5387;48.722;9.110;2023-07-22T09:52:44;1.65;;;1.55;;
10677;SDS011;5387;48.722;9.110;2023-07-22T09:55:13;1.40;;;1.30;;
10677;SDS011;5387;48.722;9.110;2023-07-22T09:57:43;2.13;;;1.45;;
10677;SDS011;5387;48.722;9.110;2023-07-22T10:00:13;1.42;;;1.33;;
10677;SDS011;5387;48.722;9.110;2023-07-22T10:02:41;1.45;;;1.40;;
10677;SDS011;5387;48.722;9.110;2023-07-22T10:05:13;1.42;;;1.33;;
10677;SDS011;5387;48.722;9.110;2023-07-22T10:07:45;1.15;;;1.15;;
10677;SDS011;5387;48.722;9.110;2023-07-22T10:10:14;1.48;;;1.38;;
10677;SDS011;5387;48.722;9.110;2023-07-22T10:12:43;3.97;;;1.50;;
10677;SDS011;5387;48.722;9.110;2023-07-22T10:15:12;1.70;;;1.60;;
10677;SDS011;5387;48.722;9.110;2023-07-22T10:17:41;2.13;;;1.55;;
10677;SDS011;5387;48.722;9.110;2023-07-22T10:20:10;1.65;;;1.30;;
10677;SDS011;5387;48.722;9.110;2023-07-22T10:22:41;1.70;;;1.45;;
10677;SDS011;5387;48.722;9.110;2023-07-22T10:25:09;3.30;;;1.60;;
10677;SDS011;5387;48.722;9.110;2023-07-22T10:27:37;1.35;;;1.27;;
10677;SDS011;5387;48.722;9.110;2023-07-22T10:30:07;1.70;;;1.60;;
10677;SDS011;5387;48.722;9.110;2023-07-22T10:32:37;1.83;;;1.30;;
10677;SDS011;5387;48.722;9.110;2023-07-22T10:35:05;1.35;;;1.25;;
10677;SDS011;5387;48.722;9.110;2023-07-22T10:37:35;1.73;;;1.48;;
10677;SDS011;5387;48.722;9.110;2023-07-22T10:40:16;1.30;;;1.20;;
10677;SDS011;5387;48.722;9.110;2023-07-22T10:42:50;1.83;;;1.50;;
10677;SDS011;5387;48.722;9.110;2023-07-22T10:45:23;1.70;;;1.60;;
10677;SDS011;5387;48.722;9.110;2023-07-22T10:48:01;1.42;;;1.33;;
10677;SDS011;5387;48.722;9.110;2023-07-22T10:50:39;1.50;;;1.40;;
10677;SDS011;5387;48.722;9.110;2023-07-22T10:53:09;1.45;;;1.35;;
10677;SDS011;5387;48.722;9.110;2023-07-22T10:58:32;1.85;;;1.40;;
10677;SDS011;5387;48.722;9.110;2023-07-22T11:01:23;1.60;;;1.50;;
10677;SDS011;5387;48.722;9.110;2023-07-22T11:06:40;1.35;;;1.30;;
10677;SDS011;5387;48.722;9.110;2023-07-22T11:09:35;2.42;;;1.50;;
10677;SDS011;5387;48.722;9.110;2023-07-22T11:12:03;1.50;;;1.40;;
10677;SDS011;5387;48.722;9.110;2023-07-22T11:14:32;1.67;;;1.33;;
10677;SDS011;5387;48.722;9.110;2023-07-22T11:17:00;4.32;;;1.40;;
10677;SDS011;5387;48.722;9.110;2023-07-22T11:19:30;1.70;;;1.60;;
10677;SDS011;5387;48.722;9.110;2023-07-22T11:21:58;1.63;;;1.50;;
10677;SDS011;5387;48.722;9.110;2023-07-22T11:24:25;2.38;;;1.77;;
10677;SDS011;5387;48.722;9.110;2023-07-22T11:26:52;1.50;;;1.40;;
10677;SDS011;5387;48.722;9.110;2023-07-22T11:29:19;1.95;;;1.50;;
10677;SDS011;5387;48.722;9.110;2023-07-22T11:31:47;1.60;;;1.50;;
10677;SDS011;5387;48.722;9.110;2023-07-22T11:34:16;1.55;;;1.45;;
10677;SDS011;5387;48.722;9.110;2023-07-22T11:36:45;2.25;;;1.58;;
10677;SDS011;5387;48.722;9.110;2023-07-22T11:39:13;3.38;;;1.60;;
10677;SDS011;5387;48.722;9.110;2023-07-22T11:41:42;1.73;;;1.55;;
10677;SDS011;5387;48.722;9.110;2023-07-22T11:44:10;2.95;;;2.03;;
10677;SDS011;5387;48.722;9.110;2023-07-22T11:46:46;3.92;;;2.03;;
10677;SDS011;5387;48.722;9.110;2023-07-22T11:49:21;8.85;;;1.65;;
10677;SDS011;5387;48.722;9.110;2023-07-22T11:51:55;3.25;;;1.65;;
10677;SDS011;5387;48.722;9.110;2023-07-22T11:54:22;4.18;;;1.63;;
10677;SDS011;5387;48.722;9.110;2023-07-22T11:56:50;2.53;;;1.85;;
10677;SDS011;5387;48.722;9.110;2023-07-22T11:59:17;1.85;;;1.60;;
10677;SDS011;5387;48.722;9.110;2023-07-22T12:01:57;2.05;;;1.70;;
10677;SDS011;5387;48.722;9.110;2023-07-22T12:04:26;3.45;;;1.52;;
10677;SDS011;5387;48.722;9.110;2023-07-22T12:06:53;1.50;;;1.40;;
10677;SDS011;5387;48.722;9.110;2023-07-22T12:09:22;1.38;;;1.30;;
10677;SDS011;5387;48.722;9.110;2023-07-22T12:11:54;2.22;;;1.70;;
10677;SDS011;5387;48.722;9.110;2023-07-22T12:14:21;1.73;;;1.63;;
10677;SDS011;5387;48.722;9.110;2023-07-22T12:16:48;2.67;;;1.65;;
10677;SDS011;5387;48.722;9.110;2023-07-22T12:19:21;1.88;;;1.77;;
10677;SDS011;5387;48.722;9.110;2023-07-22T12:21:48;2.90;;;2.08;;
10677;SDS011;5387;48.722;9.110;2023-07-22T12:24:16;2.45;;;2.25;;
10677;SDS011;5387;48.722;9.110;2023-07-22T12:26:43;6.20;;;1.95;;
10677;SDS011;5387;48.722;9.110;2023-07-22T12:29:10;2.08;;;1.88;;
10677;SDS011;5387;48.722;9.110;2023-07-22T12:31:37;1.90;;;1.80;;
10677;SDS011;5387;48.722;9.110;2023-07-22T12:34:04;1.83;;;1.73;;
10677;SDS011;5387;48.722;9.110;2023-07-22T12:36:30;2.25;;;1.60;;
10677;SDS011;5387;48.722;9.110;2023-07-22T12:38:57;1.60;;;1.50;;
10677;SDS011;5387;48.722;9.110;2023-07-22T12:41:25;1.92;;;1.73;;
10677;SDS011;5387;48.722;9.110;2023-07-22T12:43:52;2.25;;;1.63;;
10677;SDS011;5387;48.722;9.110;2023-07-22T12:46:19;2.53;;;1.50;;
10677;SDS011;5387;48.722;9.110;2023-07-22T12:48:46;1.77;;;1.67;;
10677;SDS011;5387;48.722;9.110;2023-07-22T12:51:12;1.80;;;1.70;;
10677;SDS011;5387;48.722;9.110;2023-07-22T12:53:39;4.18;;;2.00;;
10677;SDS011;5387;48.722;9.110;2023-07-22T12:56:06;2.88;;;2.08;;
10677;SDS011;5387;48.722;9.110;2023-07-22T12:58:34;2.08;;;1.88;;
10677;SDS011;5387;48.722;9.110;2023-07-22T13:01:01;2.58;;;2.00;;
10677;SDS011;5387;48.722;9.110;2023-07-22T13:03:28;2.13;;;1.92;;
10677;SDS011;5387;48.722;9.110;2023-07-22T13:05:55;2.03;;;1.90;;
10677;SDS011;5387;48.722;9.110;2023-07-22T13:08:22;2.17;;;1.88;;
10677;SDS011;5387;48.722;9.110;2023-07-22T13:10:48;3.20;;;2.00;;
10677;SDS011;5387;48.722;9.110;2023-07-22T13:13:15;2.25;;;1.98;;
10677;SDS011;5387;48.722;9.110;2023-07-22T13:15:43;2.65;;;2.10;;
10677;SDS011;5387;48.722;9.110;2023-07-22T13:18:10;1.85;;;1.73;;
10677;SDS011;5387;48.722;9.110;2023-07-22T13:20:38;1.90;;;1.80;;
10677;SDS011;5387;48.722;9.110;2023-07-22T13:23:05;2.03;;;1.83;;
10677;SDS011;5387;48.722;9.110;2023-07-22T13:25:32;2.10;;;2.00;;
10677;SDS011;5387;48.722;9.110;2023-07-22T13:27:59;1.90;;;1.67;;
10677;SDS011;5387;48.722;9.110;2023-07-22T13:30:26;2.70;;;1.75;;
10677;SDS011;5387;48.722;9.110;2023-07-22T13:32:55;4.50;;;2.35;;
10677;SDS011;5387;48.722;9.110;2023-07-22T13:35:22;2.95;;;2.10;;
10677;SDS011;5387;48.722;9.110;2023-07-22T13:37:48;4.78;;;1.95;;
10677;SDS011;5387;48.722;9.110;2023-07-22T13:40:15;2.60;;;1.95;;
10677;SDS011;5387;48.722;9.110;2023-07-22T13:42:42;2.38;;;2.00;;
10677;SDS011;5387;48.722;9.110;2023-07-22T13:45:09;2.08;;;1.98;;
10677;SDS011;5387;48.722;9.110;2023-07-22T13:47:36;2.20;;;2.00;;
10677;SDS011;5387;48.722;9.110;2023-07-22T13:50:04;4.40;;;1.95;;
10677;SDS011;5387;48.722;9.110;2023-07-22T13:52:31;2.30;;;2.10;;
10677;SDS011;5387;48.722;9.110;2023-07-22T13:54:58;2.00;;;1.80;;
10677;SDS011;5387;48.722;9.110;2023-07-22T13:57:25;3.00;;;1.80;;
10677;SDS011;5387;48.722;9.110;2023-07-22T13:59:52;4.88;;;1.98;;
10677;SDS011;5387;48.722;9.110;2023-07-22T14:02:19;2.22;;;2.00;;
10677;SDS011;5387;48.722;9.110;2023-07-22T14:04:45;2.15;;;1.92;;
10677;SDS011;5387;48.722;9.110;2023-07-22T14:07:13;2.83;;;2.08;;
10677;SDS011;5387;48.722;9.110;2023-07-22T14:09:41;2.28;;;2.03;;
10677;SDS011;5387;48.722;9.110;2023-07-22T14:12:08;2.85;;;1.90;;
10677;SDS011;5387;48.722;9.110;2023-07-22T14:14:35;2.28;;;2.08;;
10677;SDS011;5387;48.722;9.110;2023-07-22T14:17:03;3.35;;;2.67;;
10677;SDS011;5387;48.722;9.110;2023-07-22T14:19:30;2.30;;;2.08;;
10677;SDS011;5387;48.722;9.110;2023-07-22T14:21:56;2.45;;;2.25;;
10677;SDS011;5387;48.722;9.110;2023-07-22T14:24:25;2.88;;;2.20;;
10677;SDS011;5387;48.722;9.110;2023-07-22T14:26:51;2.58;;;2.28;;
10677;SDS011;5387;48.722;9.110;2023-07-22T14:29:18;2.42;;;2.22;;
10677;SDS011;5387;48.722;9.110;2023-07-22T14:31:45;2.10;;;1.90;;
10677;SDS011;5387;48.722;9.110;2023-07-22T14:34:12;2.78;;;2.00;;
10677;SDS011;5387;48.722;9.110;2023-07-22T14:36:39;2.17;;;2.05;;
10677;SDS011;5387;48.722;9.110;2023-07-22T14:39:07;2.65;;;2.15;;
10677;SDS011;5387;48.722;9.110;2023-07-22T14:41:35;2.55;;;2.15;;
10677;SDS011;5387;48.722;9.110;2023-07-22T14:44:02;4.13;;;2.28;;
10677;SDS011;5387;48.722;9.110;2023-07-22T14:46:29;3.13;;;2.72;;
10677;SDS011;5387;48.722;9.110;2023-07-22T14:48:56;3.28;;;2.22;;
10677;SDS011;5387;48.722;9.110;2023-07-22T14:51:22;2.45;;;2.20;;
10677;SDS011;5387;48.722;9.110;2023-07-22T14:53:49;2.72;;;2.53;;
10677;SDS011;5387;48.722;9.110;2023-07-22T14:56:16;3.10;;;2.33;;
10677;SDS011;5387;48.722;9.110;2023-07-22T14:58:44;2.72;;;2.50;;
10677;SDS011;5387;48.722;9.110;2023-07-22T15:01:11;2.63;;;2.40;;
10677;SDS011;5387;48.722;9.110;2023-07-22T15:03:38;2.47;;;2.28;;
10677;SDS011;5387;48.722;9.110;2023-07-22T15:06:05;3.15;;;2.50;;
10677;SDS011;5387;48.722;9.110;2023-07-22T15:08:32;3.38;;;2.60;;
10677;SDS011;5387;48.722;9.110;2023-07-22T15:10:58;3.47;;;2.72;;
10677;SDS011;5387;48.722;9.110;2023-07-22T15:13:25;2.50;;;2.28;;